createdAt,value
2022-08-31T00:02:33.561Z,2.30
2022-08-31T00:05:40.599Z,2.50
2022-08-31T00:08:45.580Z,2.38
2022-08-31T00:11:50.265Z,2.90
2022-08-31T00:14:55.972Z,2.40
2022-08-31T00:18:00.851Z,2.45
2022-08-31T00:21:06.473Z,2.70
2022-08-31T00:24:11.159Z,2.42
2022-08-31T00:27:16.270Z,2.60
2022-08-31T00:30:20.910Z,2.58
2022-08-31T00:33:25.607Z,3.05
2022-08-31T00:36:30.178Z,1.90
2022-08-31T00:39:34.658Z,2.42
2022-08-31T00:42:39.297Z,2.20
2022-08-31T00:45:43.909Z,2.33
2022-08-31T00:49:02.623Z,2.10
2022-08-31T00:52:10.445Z,2.33
2022-08-31T00:55:33.424Z,2.63
2022-08-31T00:58:38.268Z,2.13
2022-08-31T01:01:43.429Z,3.47
2022-08-31T01:04:47.983Z,3.30
2022-08-31T01:07:54.116Z,2.30
2022-08-31T01:10:59.878Z,3.20
2022-08-31T01:14:05.070Z,2.47
2022-08-31T01:17:10.732Z,2.30
2022-08-31T01:20:22.899Z,2.33
2022-08-31T01:23:36.308Z,2.00
2022-08-31T01:26:41.410Z,2.70
2022-08-31T01:29:46.487Z,2.13
2022-08-31T01:32:51.689Z,2.42
2022-08-31T01:39:01.040Z,2.50
2022-08-31T01:42:06.043Z,3.42
2022-08-31T01:45:12.873Z,3.28
2022-08-31T01:48:18.539Z,2.72
2022-08-31T01:51:24.490Z,2.70
2022-08-31T01:54:29.219Z,3.05
2022-08-31T01:57:34.683Z,2.28
2022-08-31T02:01:02.403Z,2.78
2022-08-31T02:04:17.662Z,3.28
2022-08-31T02:07:22.175Z,2.97
2022-08-31T02:10:27.261Z,2.60
2022-08-31T02:16:37.413Z,2.40
2022-08-31T02:19:43.816Z,2.78
2022-08-31T02:22:49.574Z,2.85
2022-08-31T02:25:54.354Z,2.53
2022-08-31T02:28:59.347Z,2.28
2022-08-31T02:32:04.482Z,2.38
2022-08-31T02:35:10.179Z,2.33
2022-08-31T02:38:14.763Z,2.10
2022-08-31T02:41:19.526Z,2.30
2022-08-31T02:44:25.842Z,2.35
2022-08-31T02:47:32.160Z,2.22
2022-08-31T02:50:53.950Z,1.92
2022-08-31T02:53:58.722Z,1.60
2022-08-31T02:57:04.209Z,2.45
2022-08-31T03:00:11.089Z,1.98
2022-08-31T03:03:17.349Z,1.60
2022-08-31T03:06:23.756Z,2.45
2022-08-31T03:09:28.337Z,1.90
2022-08-31T03:12:33.122Z,2.00
2022-08-31T03:15:37.864Z,2.10
2022-08-31T03:18:43.807Z,2.40
2022-08-31T03:21:48.519Z,2.88
2022-08-31T03:25:01.005Z,2.15
2022-08-31T03:28:08.614Z,1.92
2022-08-31T03:31:16.916Z,2.08
2022-08-31T03:34:21.695Z,2.38
2022-08-31T03:37:26.755Z,1.98
2022-08-31T03:40:34.856Z,5.68
2022-08-31T03:43:40.555Z,2.72
2022-08-31T03:46:46.180Z,11.35
2022-08-31T03:49:51.081Z,5.35
2022-08-31T03:53:08.496Z,5.28
2022-08-31T03:56:13.190Z,2.80
2022-08-31T03:59:19.359Z,3.30
2022-08-31T04:02:46.918Z,2.40
2022-08-31T04:05:57.385Z,2.88
2022-08-31T04:09:37.155Z,2.65
2022-08-31T04:12:42.707Z,2.30
2022-08-31T04:16:09.995Z,2.60
2022-08-31T04:19:34.807Z,2.83
2022-08-31T04:22:53.123Z,2.80
2022-08-31T04:26:06.833Z,2.70
2022-08-31T04:29:13.610Z,2.63
2022-08-31T04:32:19.235Z,2.95
2022-08-31T04:35:24.005Z,2.83
2022-08-31T04:38:28.651Z,2.65
2022-08-31T04:41:38.572Z,2.42
2022-08-31T04:44:45.083Z,3.97
2022-08-31T04:47:49.826Z,2.60
2022-08-31T04:51:02.100Z,2.95
2022-08-31T04:54:09.370Z,2.65
2022-08-31T04:57:14.190Z,2.85
2022-08-31T05:00:19.122Z,3.15
2022-08-31T05:03:51.326Z,2.42
2022-08-31T05:06:56.352Z,2.53
2022-08-31T05:10:00.976Z,2.47
2022-08-31T05:13:06.945Z,1.90
2022-08-31T05:16:13.851Z,1.73
2022-08-31T05:19:19.669Z,2.10
2022-08-31T05:22:25.327Z,2.15
2022-08-31T05:25:32.136Z,2.20
2022-08-31T05:28:37.545Z,2.17
2022-08-31T05:31:42.800Z,2.17
2022-08-31T05:34:47.450Z,2.50
2022-08-31T05:37:52.644Z,2.25
2022-08-31T05:41:01.128Z,2.33
2022-08-31T05:44:06.347Z,2.42
2022-08-31T05:47:12.779Z,1.90
2022-08-31T05:50:19.459Z,2.47
2022-08-31T05:53:24.224Z,2.05
2022-08-31T05:56:30.751Z,2.28
2022-08-31T05:59:36.911Z,2.58
2022-08-31T06:02:41.872Z,2.45
2022-08-31T06:05:51.447Z,2.42
2022-08-31T06:08:57.893Z,2.28
2022-08-31T06:12:04.311Z,2.38
2022-08-31T06:15:12.003Z,2.35
2022-08-31T06:18:16.726Z,2.90
2022-08-31T06:21:24.497Z,2.40
2022-08-31T06:24:30.387Z,2.70
2022-08-31T06:27:39.603Z,2.30
2022-08-31T06:30:54.919Z,2.58
2022-08-31T06:34:02.386Z,2.30
2022-08-31T06:37:27.172Z,3.22
2022-08-31T06:40:52.316Z,2.80
2022-08-31T06:44:30.513Z,2.25
2022-08-31T06:47:47.371Z,2.65
2022-08-31T06:51:00.067Z,2.45
2022-08-31T06:54:28.623Z,2.80
2022-08-31T06:57:52.792Z,2.58
2022-08-31T07:01:20.600Z,2.80
2022-08-31T07:04:55.331Z,3.05
2022-08-31T07:08:00.155Z,2.97
2022-08-31T07:11:05.190Z,2.30
2022-08-31T07:14:13.239Z,2.80
2022-08-31T07:17:18.730Z,2.35
2022-08-31T07:20:23.614Z,2.90
2022-08-31T07:23:28.583Z,3.40
2022-08-31T07:26:49.853Z,2.65
2022-08-31T07:30:01.089Z,2.28
2022-08-31T07:33:11.854Z,2.30
2022-08-31T07:36:26.956Z,2.05
2022-08-31T07:40:06.221Z,2.83
2022-08-31T07:43:12.435Z,2.38
2022-08-31T07:46:18.162Z,2.65
2022-08-31T07:49:23.943Z,2.88
2022-08-31T07:52:45.763Z,2.58
2022-08-31T07:56:18.908Z,2.95
2022-08-31T07:59:24.598Z,2.63
2022-08-31T08:02:39.215Z,2.28
2022-08-31T08:05:44.154Z,2.72
2022-08-31T08:09:23.938Z,2.60
2022-08-31T08:12:56.864Z,2.65
2022-08-31T08:16:19.038Z,2.60
2022-08-31T08:19:36.399Z,3.00
2022-08-31T08:22:54.326Z,3.05
2022-08-31T08:26:21.288Z,2.28
2022-08-31T08:29:42.532Z,23.00
2022-08-31T08:32:53.290Z,3.95
2022-08-31T08:36:01.424Z,3.30
2022-08-31T08:39:09.654Z,1.65
2022-08-31T08:42:28.127Z,2.22
2022-08-31T08:45:34.713Z,2.00
2022-08-31T08:48:42.047Z,1.80
2022-08-31T08:51:53.799Z,1.65
2022-08-31T08:55:08.455Z,2.00
2022-08-31T08:58:16.305Z,2.00
2022-08-31T09:01:28.182Z,2.17
2022-08-31T09:04:41.291Z,1.90
2022-08-31T09:08:12.378Z,2.00
2022-08-31T09:11:26.461Z,1.70
2022-08-31T09:14:48.592Z,1.98
2022-08-31T09:18:11.596Z,1.90
2022-08-31T09:21:26.772Z,1.70
2022-08-31T09:24:32.608Z,1.88
2022-08-31T09:28:03.266Z,2.42
2022-08-31T09:31:08.227Z,4.35
2022-08-31T09:34:37.162Z,30.05
2022-08-31T09:37:47.092Z,15.25
2022-08-31T09:40:53.849Z,7.25
2022-08-31T09:44:23.426Z,6.80
2022-08-31T09:47:45.353Z,5.72
2022-08-31T09:51:01.861Z,9.07
2022-08-31T09:54:47.194Z,12.18
2022-08-31T09:58:09.299Z,14.25
2022-08-31T10:01:19.891Z,15.18
2022-08-31T10:04:28.576Z,14.93
2022-08-31T10:07:57.746Z,13.07
2022-08-31T10:11:12.116Z,12.52
2022-08-31T10:14:45.480Z,14.18
2022-08-31T10:18:04.103Z,11.57
2022-08-31T10:21:14.851Z,7.72
2022-08-31T10:24:47.008Z,6.40
2022-08-31T10:28:07.160Z,5.75
2022-08-31T10:31:37.699Z,5.03
2022-08-31T10:35:01.316Z,4.75
2022-08-31T10:38:34.334Z,6.63
2022-08-31T10:41:51.931Z,6.80
2022-08-31T10:45:10.045Z,6.05
2022-08-31T10:48:14.895Z,6.03
2022-08-31T10:51:24.214Z,4.88
2022-08-31T10:55:06.353Z,4.25
2022-08-31T10:58:48.084Z,6.72
2022-08-31T11:01:58.893Z,5.30
2022-08-31T11:05:07.874Z,4.55
2022-08-31T11:08:31.228Z,5.13
2022-08-31T11:11:44.148Z,4.38
2022-08-31T11:15:13.879Z,4.35
2022-08-31T11:18:41.796Z,4.72
2022-08-31T11:21:58.272Z,4.47
2022-08-31T11:25:04.231Z,3.78
2022-08-31T11:28:35.037Z,3.70
2022-08-31T11:31:41.309Z,3.83
2022-08-31T11:34:58.508Z,4.00
2022-08-31T11:38:03.246Z,4.28
2022-08-31T11:41:11.998Z,4.05
2022-08-31T11:44:37.311Z,3.90
2022-08-31T11:47:44.160Z,3.78
2022-08-31T11:50:58.162Z,3.25
2022-08-31T11:54:12.743Z,3.67
2022-08-31T11:57:22.715Z,3.17
2022-08-31T12:00:52.181Z,5.68
2022-08-31T12:04:08.552Z,4.30
2022-08-31T12:07:37.384Z,4.72
2022-08-31T12:11:03.991Z,4.10
2022-08-31T12:14:52.121Z,4.18
2022-08-31T12:18:31.028Z,4.75
2022-08-31T12:21:57.599Z,5.00
2022-08-31T12:25:42.167Z,4.85
2022-08-31T12:29:17.131Z,4.95
2022-08-31T12:32:25.153Z,5.20
2022-08-31T12:35:32.382Z,5.25
2022-08-31T12:38:37.757Z,5.82
2022-08-31T12:41:57.795Z,4.95
2022-08-31T12:45:04.056Z,4.80
2022-08-31T12:48:39.753Z,4.65
2022-08-31T12:51:52.889Z,4.27
2022-08-31T12:55:28.128Z,5.57
2022-08-31T12:58:52.082Z,6.10
2022-08-31T13:01:57.104Z,5.20
2022-08-31T13:05:02.233Z,5.32
2022-08-31T13:08:23.841Z,5.00
2022-08-31T13:11:57.197Z,6.20
2022-08-31T13:15:02.106Z,6.85
2022-08-31T13:18:15.308Z,5.30
2022-08-31T13:21:23.600Z,4.68
2022-08-31T13:24:31.856Z,5.03
2022-08-31T13:27:37.313Z,4.75
2022-08-31T13:30:55.082Z,5.00
2022-08-31T13:34:03.758Z,4.40
2022-08-31T13:37:12.557Z,4.50
2022-08-31T13:40:20.492Z,4.47
2022-08-31T13:43:28.894Z,4.47
2022-08-31T13:46:44.704Z,5.18
2022-08-31T13:49:54.094Z,4.80
2022-08-31T13:56:48.413Z,4.00
2022-08-31T13:59:54.042Z,3.92
2022-08-31T14:03:00.022Z,3.70
2022-08-31T14:06:24.736Z,3.88
2022-08-31T14:09:29.258Z,4.63
2022-08-31T14:12:36.230Z,4.38
2022-08-31T14:16:03.885Z,4.30
2022-08-31T14:19:11.597Z,3.97
2022-08-31T14:22:33.218Z,3.88
2022-08-31T14:25:38.033Z,3.80
2022-08-31T14:28:45.986Z,4.20
2022-08-31T14:31:53.516Z,4.18
2022-08-31T14:34:58.786Z,3.80
2022-08-31T14:38:03.416Z,4.22
2022-08-31T14:41:10.418Z,4.43
2022-08-31T14:44:15.498Z,4.47
2022-08-31T14:47:22.084Z,4.70
2022-08-31T14:50:27.947Z,5.32
2022-08-31T14:53:34.634Z,4.50
2022-08-31T14:56:51.146Z,3.83
2022-08-31T14:59:58.453Z,3.60
2022-08-31T15:03:03.905Z,4.03
2022-08-31T15:06:09.943Z,4.38
2022-08-31T15:09:15.286Z,4.05
2022-08-31T15:12:20.260Z,4.40
2022-08-31T15:15:25.216Z,4.93
2022-08-31T15:18:30.039Z,3.85
2022-08-31T15:21:34.808Z,3.80
2022-08-31T15:24:48.751Z,3.55
2022-08-31T15:27:53.563Z,2.95
2022-08-31T15:30:58.732Z,3.08
2022-08-31T15:34:06.032Z,2.40
2022-08-31T15:37:14.364Z,2.58
2022-08-31T15:40:18.775Z,2.22
2022-08-31T15:43:23.749Z,2.42
2022-08-31T15:46:46.967Z,1.80
2022-08-31T15:49:52.507Z,2.00
2022-08-31T15:56:07.269Z,1.80
2022-08-31T15:59:12.738Z,2.00
2022-08-31T16:05:31.233Z,1.92
2022-08-31T16:08:35.773Z,1.73
2022-08-31T16:11:40.843Z,2.43
2022-08-31T16:14:46.018Z,1.80
2022-08-31T16:17:51.554Z,1.90
2022-08-31T16:20:57.205Z,1.70
2022-08-31T16:24:05.828Z,1.80
2022-08-31T16:27:15.982Z,2.30
2022-08-31T16:30:21.355Z,2.00
2022-08-31T16:33:25.879Z,2.30
2022-08-31T16:36:31.160Z,2.37
2022-08-31T16:39:37.942Z,3.22
2022-08-31T16:42:43.217Z,2.25
2022-08-31T16:45:48.048Z,2.30
2022-08-31T16:49:11.811Z,2.95
2022-08-31T16:52:22.472Z,2.83
2022-08-31T16:55:26.915Z,3.03
2022-08-31T16:58:51.181Z,3.30
2022-08-31T17:01:57.963Z,2.90
2022-08-31T17:08:15.522Z,3.75
2022-08-31T17:11:24.680Z,3.05
2022-08-31T17:14:36.806Z,3.25
2022-08-31T17:17:41.860Z,3.05
2022-08-31T17:20:46.668Z,3.30
2022-08-31T17:23:53.188Z,3.30
2022-08-31T17:27:00.484Z,3.42
2022-08-31T17:30:08.127Z,3.45
2022-08-31T17:33:13.494Z,3.60
2022-08-31T17:36:21.211Z,3.60
2022-08-31T17:39:27.199Z,3.28
2022-08-31T17:42:35.843Z,3.55
2022-08-31T17:45:40.578Z,3.55
2022-08-31T17:48:46.844Z,3.50
2022-08-31T17:51:54.932Z,3.60
2022-08-31T17:55:02.677Z,3.60
2022-08-31T17:58:08.309Z,4.30
2022-08-31T18:01:14.189Z,5.38
2022-08-31T18:04:21.209Z,5.53
2022-08-31T18:07:26.244Z,4.88
2022-08-31T18:10:31.017Z,5.27
2022-08-31T18:13:35.900Z,4.80
2022-08-31T18:16:42.525Z,4.47
2022-08-31T18:19:47.412Z,4.40
2022-08-31T18:22:53.111Z,4.15
2022-08-31T18:25:57.706Z,4.18
2022-08-31T18:29:02.525Z,4.97
2022-08-31T18:32:09.098Z,4.55
2022-08-31T18:35:15.255Z,4.38
2022-08-31T18:38:20.292Z,4.40
2022-08-31T18:41:45.944Z,4.22
2022-08-31T18:45:08.880Z,4.75
2022-08-31T18:48:24.738Z,4.35
2022-08-31T18:51:30.726Z,4.18
2022-08-31T18:54:35.660Z,4.57
2022-08-31T18:57:48.720Z,4.28
2022-08-31T19:00:59.884Z,3.70
2022-08-31T19:04:05.907Z,3.75
2022-08-31T19:07:10.507Z,4.43
2022-08-31T19:10:15.278Z,4.17
2022-08-31T19:13:19.906Z,3.63
2022-08-31T19:16:28.313Z,4.35
2022-08-31T19:19:33.121Z,4.05
2022-08-31T19:22:37.773Z,4.63
2022-08-31T19:25:44.397Z,3.90
2022-08-31T19:28:51.040Z,3.90
2022-08-31T19:31:58.099Z,3.88
2022-08-31T19:35:03.243Z,3.75
2022-08-31T19:38:08.153Z,3.50
2022-08-31T19:41:17.354Z,3.58
2022-08-31T19:44:23.196Z,4.28
2022-08-31T19:47:27.764Z,3.50
2022-08-31T19:50:32.700Z,3.27
2022-08-31T19:53:40.417Z,3.40
2022-08-31T19:56:49.592Z,3.78
2022-08-31T19:59:54.380Z,3.30
2022-08-31T20:03:00.524Z,3.50
2022-08-31T20:06:08.258Z,3.22
2022-08-31T20:09:14.168Z,3.40
2022-08-31T20:12:19.700Z,3.30
2022-08-31T20:18:29.049Z,3.45
2022-08-31T20:21:35.600Z,3.42
2022-08-31T20:24:44.907Z,3.63
2022-08-31T20:27:50.645Z,3.58
2022-08-31T20:34:04.898Z,3.42
2022-08-31T20:37:09.377Z,3.70
2022-08-31T20:40:17.930Z,3.08
2022-08-31T20:43:23.851Z,3.45
2022-08-31T20:46:48.071Z,3.03
2022-08-31T20:49:57.664Z,3.13
2022-08-31T20:53:02.080Z,3.00
2022-08-31T20:56:07.825Z,3.15
2022-08-31T20:59:12.638Z,3.17
2022-08-31T21:02:18.269Z,3.22
2022-08-31T21:05:40.559Z,3.60
2022-08-31T21:08:45.511Z,3.33
2022-08-31T21:11:50.823Z,3.55
2022-08-31T21:14:57.261Z,3.30
2022-08-31T21:18:02.357Z,3.10
2022-08-31T21:21:09.358Z,3.22
2022-08-31T21:24:16.989Z,2.90
2022-08-31T21:27:21.812Z,3.10
2022-08-31T21:30:26.739Z,2.80
2022-08-31T21:33:31.097Z,3.05
2022-08-31T21:36:36.717Z,2.70
2022-08-31T21:39:42.197Z,2.90
2022-08-31T21:42:47.016Z,3.30
2022-08-31T21:46:24.314Z,2.70
2022-08-31T21:49:28.958Z,2.70
2022-08-31T21:52:33.768Z,2.70
2022-08-31T21:55:39.732Z,3.00
2022-08-31T21:58:44.745Z,2.97
2022-08-31T22:01:49.831Z,2.90
2022-08-31T22:04:54.545Z,3.97
2022-08-31T22:07:59.144Z,2.93
2022-08-31T22:11:10.671Z,3.30
2022-08-31T22:14:20.345Z,3.20
2022-08-31T22:17:42.294Z,3.95
2022-08-31T22:20:50.580Z,3.70
2022-08-31T22:23:58.401Z,4.05
2022-08-31T22:27:06.896Z,3.78
2022-08-31T22:30:12.080Z,3.30
2022-08-31T22:33:16.774Z,3.10
2022-08-31T22:36:31.511Z,3.15
2022-08-31T22:39:36.727Z,3.30
2022-08-31T22:42:41.627Z,3.70
2022-08-31T22:45:48.937Z,3.45
2022-08-31T22:48:53.863Z,4.00
2022-08-31T22:51:58.637Z,4.03
2022-08-31T22:55:03.937Z,3.63
2022-08-31T22:58:08.413Z,3.42
2022-08-31T23:01:28.340Z,3.58
2022-08-31T23:04:35.714Z,3.05
2022-08-31T23:07:40.410Z,4.05
2022-08-31T23:10:45.244Z,3.33
2022-08-31T23:13:58.499Z,3.30
2022-08-31T23:17:09.285Z,3.63
2022-08-31T23:20:20.715Z,3.70
2022-08-31T23:23:25.502Z,3.08
2022-08-31T23:26:32.443Z,3.40
2022-08-31T23:29:48.981Z,3.50
2022-08-31T23:32:54.085Z,3.10
2022-08-31T23:35:59.387Z,3.25
2022-08-31T23:39:05.819Z,3.60
2022-08-31T23:42:12.936Z,4.10
2022-08-31T23:45:18.178Z,4.13
2022-08-31T23:48:23.910Z,3.53
2022-08-31T23:51:28.404Z,3.08
2022-08-31T23:54:33.159Z,4.00
2022-08-31T23:57:38.574Z,3.47
